Time;durP1;ratioP1;P1;durP2;ratioP2;P2;SDS_P1;SDS_P2;PMS_P1;PMS_P2;Temp;Humidity;BMP_temperature;BMP_pressure;BME280_temperature;BME280_humidity;BME280_pressure;Samples;Min_cycle;Max_cycle;Signal;HPM_P1;HPM_P2
2021/08/03 00:04:41;;;;;;;4.00;3.20;;;;;14.50;100942.00;;;;10357222;28;20195;-76
2021/08/03 00:09:43;;;;;;;4.40;3.00;;;;;14.50;100941.00;;;;10341577;28;20744;-76
2021/08/03 00:14:51;;;;;;;5.70;2.50;;;;;14.60;100930.00;;;;10357197;28;20183;-75
2021/08/03 00:19:53;;;;;;;6.07;2.33;;;;;14.60;100936.00;;;;10324768;28;20211;-76
2021/08/03 00:24:55;;;;;;;5.20;3.60;;;;;14.60;100940.00;;;;10340196;28;20192;-77
2021/08/03 00:29:58;;;;;;;3.50;3.20;;;;;14.50;100945.00;;;;10340445;28;20553;-76
2021/08/03 00:35:00;;;;;;;4.33;3.00;;;;;14.50;100947.00;;;;10324223;28;20219;-76
2021/08/03 00:40:08;;;;;;;4.27;3.50;;;;;14.40;100940.00;;;;10356597;28;20294;-76
2021/08/03 00:45:11;;;;;;;7.07;3.30;;;;;14.40;100944.00;;;;10340182;28;20199;-77
2021/08/03 00:50:20;;;;;;;5.70;3.70;;;;;14.30;100943.00;;;;10355884;28;20190;-76
2021/08/03 00:55:22;;;;;;;6.77;3.67;;;;;14.20;100937.00;;;;10356147;28;20203;-76
2021/08/03 01:00:28;;;;;;;4.37;3.80;;;;;14.10;100939.00;;;;10361276;28;20586;-76
2021/08/03 01:05:46;;;;;;;5.97;3.40;;;;;14.00;100941.00;;;;10364262;28;20191;-76
2021/08/03 01:11:04;;;;;;;6.43;3.60;;;;;13.90;100929.00;;;;10364112;28;20543;-76
2021/08/03 01:16:24;;;;;;;7.73;4.60;;;;;13.80;100932.00;;;;10354822;28;20187;-78
2021/08/03 01:21:44;;;;;;;6.37;4.30;;;;;13.70;100928.00;;;;10354526;28;20734;-78
2021/08/03 01:27:06;;;;;;;6.80;3.77;;;;;13.70;100927.00;;;;10353021;28;20203;-77
2021/08/03 01:32:11;;;;;;;6.80;4.30;;;;;13.70;100927.00;;;;10369973;28;20239;-78
2021/08/03 01:37:19;;;;;;;6.50;4.20;;;;;13.70;100913.00;;;;10368564;28;20202;-75
2021/08/03 01:42:24;;;;;;;7.67;4.23;;;;;13.60;100919.00;;;;10368675;28;20244;-77
2021/08/03 01:47:28;;;;;;;8.10;4.67;;;;;13.70;100911.00;;;;10367858;28;20290;-78
2021/08/03 01:52:32;;;;;;;6.77;5.37;;;;;13.60;100903.00;;;;10368266;28;20192;-78
2021/08/03 01:57:42;;;;;;;7.70;4.43;;;;;13.60;100894.00;;;;10332594;28;20196;-77
2021/08/03 02:02:51;;;;;;;6.73;4.80;;;;;13.60;100877.00;;;;10348462;28;20218;-79
2021/08/03 02:07:54;;;;;;;7.57;4.90;;;;;13.60;100875.00;;;;10333537;28;20196;-79
2021/08/03 02:13:02;;;;;;;7.50;5.37;;;;;13.60;100859.00;;;;10348649;28;20234;-80
2021/08/03 02:18:04;;;;;;;11.37;5.70;;;;;13.60;100858.00;;;;10333371;28;20195;-79
2021/08/03 02:23:13;;;;;;;9.47;5.27;;;;;13.50;100853.00;;;;10317946;28;20313;-80
2021/08/03 02:28:21;;;;;;;8.07;5.90;;;;;13.50;100854.00;;;;10366183;28;20226;-78
2021/08/03 02:33:30;;;;;;;7.90;6.27;;;;;13.50;100853.00;;;;10373258;28;20721;-78
2021/08/03 02:38:45;;;;;;;7.53;5.60;;;;;13.50;100847.00;;;;10389446;28;20210;-79
2021/08/03 02:43:55;;;;;;;9.83;6.27;;;;;13.50;100846.00;;;;10390271;28;20245;-81
2021/08/03 02:49:03;;;;;;;8.67;6.40;;;;;13.50;100844.00;;;;10377329;28;20230;-82
2021/08/03 02:54:25;;;;;;;9.07;6.67;;;;;13.40;100834.00;;;;10409636;28;20196;-83
2021/08/03 02:59:34;;;;;;;9.70;6.77;;;;;13.40;100832.00;;;;10333739;28;20194;-84
2021/08/03 03:04:46;;;;;;;11.67;7.50;;;;;13.40;100830.00;;;;10350421;28;20229;-81
2021/08/03 03:09:52;;;;;;;11.37;7.77;;;;;13.30;100827.00;;;;10335432;28;20192;-81
2021/08/03 03:14:58;;;;;;;11.97;7.63;;;;;13.30;100819.00;;;;10315508;28;20258;-79
2021/08/03 03:20:06;;;;;;;10.67;9.13;;;;;13.30;100810.00;;;;10348382;28;20670;-82
2021/08/03 03:25:12;;;;;;;12.67;8.33;;;;;13.20;100814.00;;;;10316822;28;20597;-81
2021/08/03 03:30:15;;;;;;;13.07;7.40;;;;;13.20;100821.00;;;;10332311;28;20192;-82
2021/08/03 03:35:21;;;;;;;14.10;8.63;;;;;13.20;100816.00;;;;10290573;28;20223;-82
2021/08/03 03:40:26;;;;;;;12.10;8.17;;;;;13.20;100813.00;;;;10306116;28;20222;-82
2021/08/03 03:45:34;;;;;;;13.20;8.50;;;;;13.20;100812.00;;;;10621303;27;20559;-79
2021/08/03 03:50:44;;;;;;;12.33;7.93;;;;;13.10;100817.00;;;;10552787;28;20191;-79
2021/08/03 03:56:08;;;;;;;13.97;9.53;;;;;13.10;100809.00;;;;10557363;28;20294;-80
2021/08/03 04:01:17;;;;;;;14.17;9.83;;;;;13.10;100809.00;;;;10527131;28;20695;-79
2021/08/03 04:06:20;;;;;;;16.17;10.40;;;;;13.10;100812.00;;;;10558519;28;20295;-79
2021/08/03 04:11:22;;;;;;;18.60;11.03;;;;;13.00;100809.00;;;;10518495;28;20230;-79
2021/08/03 04:16:28;;;;;;;18.07;10.97;;;;;13.00;100799.00;;;;10534724;28;20185;-78
2021/08/03 04:21:31;;;;;;;17.80;11.57;;;;;12.90;100792.00;;;;10540671;28;20231;-78
2021/08/03 04:26:33;;;;;;;23.83;11.47;;;;;12.90;100794.00;;;;10554608;28;20192;-77
2021/08/03 04:31:36;;;;;;;17.63;11.07;;;;;12.90;100798.00;;;;10542281;28;20181;-77
2021/08/03 04:36:38;;;;;;;20.70;11.27;;;;;12.90;100795.00;;;;10583394;28;20216;-78
2021/08/03 04:41:40;;;;;;;18.73;11.90;;;;;12.90;100800.00;;;;10583202;28;20212;-78
2021/08/03 04:46:42;;;;;;;17.37;12.00;;;;;13.00;100801.00;;;;10567177;28;20219;-78
2021/08/03 04:51:44;;;;;;;17.37;10.67;;;;;13.00;100818.00;;;;10566772;28;20863;-77
2021/08/03 04:56:46;;;;;;;16.93;10.97;;;;;13.10;100828.00;;;;10579547;27;20191;-77
2021/08/03 05:01:48;;;;;;;23.50;10.70;;;;;13.10;100824.00;;;;10580186;27;20224;-78
2021/08/03 05:06:50;;;;;;;16.80;10.97;;;;;13.10;100825.00;;;;10597338;27;20192;-77
2021/08/03 05:11:52;;;;;;;19.13;10.80;;;;;13.20;100831.00;;;;10597101;27;20562;-77
2021/08/03 05:16:54;;;;;;;20.50;9.53;;;;;13.20;100835.00;;;;10596634;27;20197;-78
2021/08/03 05:21:56;;;;;;;18.00;10.60;;;;;13.30;100823.00;;;;10562730;27;20211;-77
2021/08/03 05:27:00;;;;;;;20.93;11.10;;;;;13.40;100829.00;;;;10570044;28;20203;-78
2021/08/03 05:32:03;;;;;;;20.83;10.63;;;;;13.50;100820.00;;;;10553587;27;20223;-78
2021/08/03 05:37:05;;;;;;;18.90;11.20;;;;;13.50;100813.00;;;;10553787;28;20196;-78
2021/08/03 05:42:07;;;;;;;20.70;11.47;;;;;13.60;100804.00;;;;10520268;28;20212;-77
2021/08/03 05:47:09;;;;;;;18.83;10.90;;;;;13.70;100797.00;;;;10536831;28;20605;-77
2021/08/03 05:52:11;;;;;;;22.60;10.77;;;;;13.90;100801.00;;;;10570456;27;20295;-77
2021/08/03 05:57:13;;;;;;;20.87;11.03;;;;;14.00;100806.00;;;;10568796;28;20262;-77
2021/08/03 06:02:15;;;;;;;19.33;9.27;;;;;14.10;100802.00;;;;10557365;27;20207;-77
2021/08/03 06:07:18;;;;;;;14.80;8.00;;;;;14.20;100809.00;;;;10576621;27;20592;-77
2021/08/03 06:12:20;;;;;;;12.50;8.17;;;;;14.30;100809.00;;;;10577338;27;20195;-77
2021/08/03 06:17:42;;;;;;;12.27;8.70;;;;;14.30;100816.00;;;;10590975;27;20550;-77
2021/08/03 06:22:43;;;;;;;15.87;10.10;;;;;14.50;100826.00;;;;10567460;28;20207;-76
2021/08/03 06:27:48;;;;;;;17.03;9.73;;;;;14.50;100827.00;;;;10554811;27;20195;-76
2021/08/03 06:32:51;;;;;;;13.00;8.93;;;;;14.50;100827.00;;;;10591930;27;20260;-76
2021/08/03 06:37:53;;;;;;;17.23;9.27;;;;;14.50;100827.00;;;;10574595;27;20221;-76
2021/08/03 06:43:02;;;;;;;11.03;8.53;;;;;14.60;100836.00;;;;10591365;27;20227;-76
2021/08/03 06:48:07;;;;;;;14.63;9.93;;;;;14.70;100845.00;;;;10590903;27;20205;-76
2021/08/03 06:53:11;;;;;;;13.40;8.63;;;;;14.90;100839.00;;;;10583642;27;20192;-76
2021/08/03 06:58:31;;;;;;;15.97;8.57;;;;;15.10;100839.00;;;;10581647;28;20200;-76
2021/08/03 07:03:38;;;;;;;15.07;9.10;;;;;15.30;100850.00;;;;10581566;28;20683;-76
2021/08/03 07:08:41;;;;;;;11.50;8.60;;;;;15.40;100843.00;;;;10546863;28;20226;-76
2021/08/03 07:13:44;;;;;;;11.13;8.10;;;;;15.50;100848.00;;;;10563756;28;20192;-76
2021/08/03 07:18:48;;;;;;;13.80;8.30;;;;;15.80;100846.00;;;;10546939;28;20547;-76
2021/08/03 07:23:54;;;;;;;12.00;8.43;;;;;16.00;100838.00;;;;10542650;27;20208;-76
2021/08/03 07:28:56;;;;;;;10.83;8.53;;;;;16.10;100854.00;;;;10565735;27;20592;-76
2021/08/03 07:33:58;;;;;;;11.87;8.47;;;;;16.10;100848.00;;;;10546618;28;20219;-75
2021/08/03 07:39:04;;;;;;;14.45;8.80;;;;;16.10;100844.00;;;;10546432;28;20237;-75
2021/08/03 07:44:06;;;;;;;8.98;8.00;;;;;16.30;100844.00;;;;10597377;28;20226;-76
2021/08/03 07:49:08;;;;;;;9.97;7.50;;;;;16.50;100837.00;;;;10573423;28;20191;-77
2021/08/03 07:54:10;;;;;;;9.80;6.60;;;;;16.70;100848.00;;;;10559034;28;20604;-77
2021/08/03 07:59:12;;;;;;;8.10;5.80;;;;;17.10;100852.00;;;;10568378;28;20201;-76
2021/08/03 08:04:14;;;;;;;9.07;5.97;;;;;17.60;100858.00;;;;10547873;28;20554;-76
2021/08/03 08:09:16;;;;;;;8.32;6.05;;;;;18.00;100866.00;;;;10587673;28;20196;-76
2021/08/03 08:14:18;;;;;;;8.75;5.53;;;;;18.30;100872.00;;;;10542278;28;20196;-76
2021/08/03 08:19:20;;;;;;;8.02;5.72;;;;;18.60;100887.00;;;;10576117;28;20738;-78
2021/08/03 08:24:22;;;;;;;9.90;6.00;;;;;18.80;100890.00;;;;10588826;28;20265;-76
2021/08/03 08:29:24;;;;;;;7.13;5.57;;;;;18.80;100900.00;;;;10558858;27;20196;-76
2021/08/03 08:34:25;;;;;;;12.10;5.97;;;;;19.00;100896.00;;;;10566643;27;20261;-76
2021/08/03 08:39:27;;;;;;;7.65;5.10;;;;;19.20;100903.00;;;;10563459;28;20196;-76
2021/08/03 08:44:30;;;;;;;9.05;5.95;;;;;19.30;100910.00;;;;10610709;27;20211;-76
2021/08/03 08:49:34;;;;;;;8.40;6.00;;;;;19.30;100907.00;;;;10587466;27;20283;-77
2021/08/03 08:54:35;;;;;;;9.63;6.85;;;;;19.40;100922.00;;;;10600304;27;20212;-76
2021/08/03 08:59:38;;;;;;;7.25;5.97;;;;;19.60;100918.00;;;;10567557;28;20193;-77
2021/08/03 09:04:42;;;;;;;6.97;5.22;;;;;20.00;100905.00;;;;10570787;28;20204;-76
2021/08/03 09:09:45;;;;;;;9.60;5.20;;;;;20.70;100917.00;;;;10554902;27;20192;-76
2021/08/03 09:14:47;;;;;;;7.10;5.68;;;;;21.10;100916.00;;;;10564675;27;20195;-76
2021/08/03 09:19:49;;;;;;;6.72;5.68;;;;;21.30;100908.00;;;;10591838;27;20187;-76
2021/08/03 09:25:12;;;;;;;6.82;5.03;;;;;21.60;100909.00;;;;10594947;27;20215;-77
2021/08/03 09:30:17;;;;;;;9.70;6.10;;;;;22.10;100909.00;;;;10611925;27;20184;-77
2021/08/03 09:35:21;;;;;;;5.15;3.40;;;;;22.30;100912.00;;;;10563699;28;20212;-76
2021/08/03 09:40:31;;;;;;;8.20;4.22;;;;;22.80;100909.00;;;;10584505;27;20208;-77
2021/08/03 09:45:36;;;;;;;5.57;3.90;;;;;22.50;100909.00;;;;10572069;27;20218;-77
2021/08/03 09:50:56;;;;;;;5.38;3.80;;;;;22.30;100902.00;;;;10564334;27;20219;-77
2021/08/03 09:55:58;;;;;;;5.47;3.50;;;;;22.40;100892.00;;;;10561971;27;20244;-76
2021/08/03 10:01:32;;;;;;;3.72;3.30;;;;;23.00;100897.00;;;;10567220;27;20207;-76
2021/08/03 10:06:36;;;;;;;4.75;2.92;;;;;24.00;100890.00;;;;10541429;27;20195;-77
2021/08/03 10:11:38;;;;;;;4.88;3.08;;;;;24.70;100890.00;;;;10563650;28;20195;-76
2021/08/03 10:16:59;;;;;;;5.22;4.03;;;;;25.20;100872.00;;;;10584712;27;20252;-76
2021/08/03 10:22:26;;;;;;;7.15;4.53;;;;;25.40;100876.00;;;;10589836;27;20212;-76
2021/08/03 10:27:43;;;;;;;11.98;7.25;;;;;25.40;100867.00;;;;10569317;27;20269;-76
2021/08/03 10:32:49;;;;;;;7.70;5.95;;;;;24.30;100879.00;;;;10587763;27;20215;-76
2021/08/03 10:37:57;;;;;;;9.90;6.22;;;;;23.90;100869.00;;;;10569988;28;20313;-77
2021/08/03 10:43:22;;;;;;;5.53;4.30;;;;;24.80;100860.00;;;;10569659;27;20204;-76
2021/08/03 10:48:39;;;;;;;4.82;4.05;;;;;24.90;100855.00;;;;10538463;27;20199;-76
2021/08/03 10:54:00;;;;;;;6.97;4.70;;;;;25.20;100850.00;;;;10564611;27;20187;-76
2021/08/03 10:59:34;;;;;;;4.00;2.97;;;;;25.30;100838.00;;;;10568236;27;20192;-76
2021/08/03 11:04:40;;;;;;;5.13;2.70;;;;;25.00;100848.00;;;;10565412;27;20263;-76
2021/08/03 11:09:44;;;;;;;3.58;2.20;;;;;24.70;100848.00;;;;10568774;27;20196;-76
2021/08/03 11:14:46;;;;;;;3.08;2.08;;;;;25.20;100844.00;;;;10558933;27;20192;-75
2021/08/03 11:19:47;;;;;;;5.25;2.35;;;;;25.70;100836.00;;;;10602762;27;20199;-76
2021/08/03 11:24:49;;;;;;;5.13;2.30;;;;;26.00;100831.00;;;;10551430;27;20210;-76
2021/08/03 11:29:52;;;;;;;3.10;2.20;;;;;26.00;100827.00;;;;10545783;27;20642;-76
2021/08/03 11:34:57;;;;;;;3.95;2.58;;;;;26.30;100816.00;;;;10586529;27;20211;-75
2021/08/03 11:39:59;;;;;;;4.00;2.40;;;;;26.30;100814.00;;;;10568637;27;20206;-75
2021/08/03 11:45:08;;;;;;;4.22;2.60;;;;;26.50;100802.00;;;;10572864;28;20214;-75
2021/08/03 11:50:30;;;;;;;4.45;2.40;;;;;26.50;100809.00;;;;10572171;27;20511;-76
2021/08/03 11:55:34;;;;;;;4.68;3.13;;;;;25.80;100809.00;;;;10624150;27;20198;-75
2021/08/03 12:00:37;;;;;;;5.60;3.13;;;;;25.60;100799.00;;;;10605210;28;20274;-76
2021/08/03 12:05:39;;;;;;;3.85;3.00;;;;;25.70;100793.00;;;;10612576;27;20203;-76
2021/08/03 12:10:42;;;;;;;4.13;3.10;;;;;25.90;100790.00;;;;10591631;27;20199;-75
2021/08/03 12:15:49;;;;;;;5.22;2.83;;;;;25.90;100798.00;;;;10553815;28;20275;-76
2021/08/03 12:20:54;;;;;;;7.53;3.65;;;;;26.60;100788.00;;;;10554091;28;20207;-76
2021/08/03 12:26:02;;;;;;;3.35;2.90;;;;;26.60;100799.00;;;;10581924;27;20207;-76
2021/08/03 12:31:20;;;;;;;5.18;2.88;;;;;27.40;100789.00;;;;10578690;27;20202;-76
2021/08/03 12:36:23;;;;;;;5.75;3.15;;;;;27.50;100776.00;;;;10612326;27;20287;-76
2021/08/03 12:41:30;;;;;;;6.45;3.35;;;;;28.00;100774.00;;;;10610186;27;20210;-76
2021/08/03 12:46:37;;;;;;;3.47;2.65;;;;;27.80;100766.00;;;;10629044;27;20562;-76
2021/08/03 12:51:39;;;;;;;6.53;3.50;;;;;26.80;100763.00;;;;10595733;27;20187;-76
2021/08/03 12:57:01;;;;;;;5.18;3.10;;;;;27.40;100757.00;;;;10582376;27;20192;-76
2021/08/03 13:02:04;;;;;;;5.78;3.83;;;;;26.20;100766.00;;;;10595020;27;20198;-76
2021/08/03 13:07:07;;;;;;;5.35;3.42;;;;;25.40;100758.00;;;;10578301;27;20187;-76
2021/08/03 13:12:10;;;;;;;4.07;3.33;;;;;25.90;100757.00;;;;10590441;27;20203;-76
2021/08/03 13:17:12;;;;;;;4.78;3.15;;;;;25.20;100760.00;;;;10594958;27;20763;-77
2021/08/03 13:22:14;;;;;;;4.13;3.20;;;;;24.40;100749.00;;;;10630098;27;20282;-75
2021/08/03 13:27:16;;;;;;;5.85;3.33;;;;;24.10;100755.00;;;;10593516;27;20650;-76
2021/08/03 13:32:18;;;;;;;6.05;3.70;;;;;23.80;100748.00;;;;10608291;27;20890;-76
2021/08/03 13:37:21;;;;;;;3.95;3.47;;;;;23.20;100760.00;;;;10592046;27;20187;-76
2021/08/03 13:42:23;;;;;;;5.45;4.13;;;;;22.50;100753.00;;;;10583739;27;20203;-76
2021/08/03 13:47:25;;;;;;;5.78;3.88;;;;;22.10;100753.00;;;;10576544;27;20199;-76
2021/08/03 13:52:27;;;;;;;5.03;3.78;;;;;21.90;100749.00;;;;10591334;27;20212;-76
2021/08/03 13:57:29;;;;;;;5.68;3.72;;;;;21.90;100752.00;;;;10605294;27;20190;-77
2021/08/03 14:02:31;;;;;;;8.73;4.28;;;;;22.10;100747.00;;;;10562237;27;20212;-76
2021/08/03 14:07:33;;;;;;;6.50;4.00;;;;;22.10;100741.00;;;;10571729;28;20261;-76
2021/08/03 14:12:35;;;;;;;6.85;4.45;;;;;22.40;100743.00;;;;10603472;27;20195;-76
2021/08/03 14:17:37;;;;;;;7.10;4.35;;;;;22.60;100736.00;;;;10631192;27;20267;-75
2021/08/03 14:22:42;;;;;;;6.68;3.90;;;;;22.60;100733.00;;;;10605494;27;20199;-76
2021/08/03 14:27:44;;;;;;;7.45;3.88;;;;;22.80;100739.00;;;;10564155;27;20757;-76
2021/08/03 14:32:46;;;;;;;5.97;4.13;;;;;23.00;100734.00;;;;10586404;27;20222;-76
2021/08/03 14:37:48;;;;;;;5.90;3.78;;;;;23.00;100736.00;;;;10570940;27;20240;-76
2021/08/03 14:42:50;;;;;;;5.97;3.90;;;;;23.00;100739.00;;;;10587226;27;20223;-76
2021/08/03 14:47:52;;;;;;;6.60;3.63;;;;;23.10;100742.00;;;;10587191;27;20203;-76
2021/08/03 14:52:54;;;;;;;5.28;3.28;;;;;23.10;100743.00;;;;10586267;27;20188;-76
2021/08/03 14:57:55;;;;;;;6.15;3.70;;;;;23.30;100754.00;;;;10581138;27;20569;-76
2021/08/03 15:02:57;;;;;;;4.60;3.30;;;;;23.50;100741.00;;;;10604046;27;20210;-76
2021/08/03 15:07:59;;;;;;;6.35;4.55;;;;;23.70;100739.00;;;;10603286;27;20621;-76
2021/08/03 15:13:02;;;;;;;5.38;3.63;;;;;24.10;100739.00;;;;10569677;27;20188;-76
2021/08/03 15:18:03;;;;;;;7.00;3.65;;;;;24.80;100731.00;;;;10572120;27;20198;-76
2021/08/03 15:23:05;;;;;;;8.70;3.67;;;;;25.20;100731.00;;;;10577155;27;20200;-76
2021/08/03 15:28:08;;;;;;;4.00;3.60;;;;;25.20;100727.00;;;;10620676;27;20277;-76
2021/08/03 15:33:10;;;;;;;5.35;3.70;;;;;24.50;100722.00;;;;10585471;27;20208;-76
2021/08/03 15:38:13;;;;;;;7.38;3.70;;;;;24.10;100722.00;;;;10602383;27;20198;-76
2021/08/03 15:43:15;;;;;;;3.80;2.65;;;;;24.10;100720.00;;;;10579295;28;20208;-76
2021/08/03 15:48:17;;;;;;;3.53;2.30;;;;;23.80;100723.00;;;;10568525;28;20218;-76
2021/08/03 15:53:19;;;;;;;4.30;2.30;;;;;23.90;100722.00;;;;10561117;28;20192;-76
2021/08/03 15:58:23;;;;;;;2.28;2.08;;;;;24.00;100725.00;;;;10560686;28;20196;-76
2021/08/03 16:03:25;;;;;;;4.00;2.60;;;;;24.10;100712.00;;;;10527096;28;20219;-76
2021/08/03 16:08:27;;;;;;;4.03;2.22;;;;;24.50;100721.00;;;;10527226;28;20191;-76
2021/08/03 16:13:29;;;;;;;4.47;2.83;;;;;24.70;100710.00;;;;10543696;28;20184;-76
2021/08/03 16:18:49;;;;;;;3.15;2.20;;;;;24.30;100713.00;;;;10573038;28;20272;-77
2021/08/03 16:23:53;;;;;;;4.55;2.95;;;;;24.00;100715.00;;;;10542515;28;20227;-77
2021/08/03 16:28:57;;;;;;;4.20;2.35;;;;;24.00;100715.00;;;;10585801;28;20198;-76
2021/08/03 16:34:02;;;;;;;4.55;2.08;;;;;23.20;100716.00;;;;10555319;28;20216;-76
2021/08/03 16:39:06;;;;;;;5.75;2.22;;;;;22.50;100714.00;;;;10535557;28;20718;-76
2021/08/03 16:44:09;;;;;;;4.32;2.40;;;;;22.20;100716.00;;;;10535371;28;20223;-76
2021/08/03 16:49:11;;;;;;;3.35;2.00;;;;;21.90;100712.00;;;;10549686;28;20203;-76
2021/08/03 16:54:14;;;;;;;3.47;2.13;;;;;21.70;100723.00;;;;10548492;27;20216;-76
2021/08/03 16:59:16;;;;;;;3.15;2.58;;;;;21.70;100715.00;;;;10581533;27;20828;-76
2021/08/03 17:04:33;;;;;;;2.63;1.65;;;;;21.70;100724.00;;;;10591315;27;20210;-76
2021/08/03 17:09:48;;;;;;;5.75;1.92;;;;;21.80;100724.00;;;;10625760;27;20654;-76
2021/08/03 17:14:57;;;;;;;2.83;1.77;;;;;21.80;100721.00;;;;10591282;27;20192;-76
2021/08/03 17:20:06;;;;;;;3.42;1.83;;;;;21.60;100721.00;;;;10626889;27;20203;-76
2021/08/03 17:25:12;;;;;;;2.40;2.20;;;;;21.50;100733.00;;;;10530949;28;20216;-76
2021/08/03 17:30:16;;;;;;;3.97;2.33;;;;;21.40;100722.00;;;;10565212;28;20188;-76
2021/08/03 17:35:19;;;;;;;3.10;2.08;;;;;21.20;100725.00;;;;10548065;28;20692;-76
2021/08/03 17:40:22;;;;;;;3.72;2.33;;;;;21.10;100721.00;;;;10547154;28;20602;-76
2021/08/03 17:45:24;;;;;;;5.00;2.30;;;;;21.00;100727.00;;;;10564622;28;20208;-76
2021/08/03 17:50:28;;;;;;;4.75;2.47;;;;;20.80;100732.00;;;;10543826;27;20205;-76
2021/08/03 17:55:32;;;;;;;2.83;2.50;;;;;20.70;100733.00;;;;10557546;27;20196;-76
2021/08/03 18:00:34;;;;;;;3.80;2.40;;;;;20.60;100732.00;;;;10498102;28;20259;-76
2021/08/03 18:05:36;;;;;;;2.20;1.70;;;;;20.40;100731.00;;;;10521825;27;20216;-76
2021/08/03 18:10:39;;;;;;;5.75;2.22;;;;;20.20;100737.00;;;;10561425;28;20188;-76
2021/08/03 18:15:44;;;;;;;2.90;2.65;;;;;20.10;100740.00;;;;10571846;27;20221;-76
2021/08/03 18:20:47;;;;;;;5.25;2.42;;;;;19.90;100744.00;;;;10588706;27;20192;-76
2021/08/03 18:26:01;;;;;;;6.88;4.05;;;;;19.70;100749.00;;;;10533760;28;20216;-76
2021/08/03 18:31:23;;;;;;;5.15;2.75;;;;;19.60;100749.00;;;;10520886;28;20670;-76
2021/08/03 18:36:31;;;;;;;2.70;2.35;;;;;19.50;100752.00;;;;10530406;28;20239;-76
2021/08/03 18:41:44;;;;;;;3.22;2.33;;;;;19.30;100755.00;;;;10536631;27;20302;-76
2021/08/03 18:46:47;;;;;;;4.63;2.63;;;;;19.20;100754.00;;;;10528998;28;20213;-75
2021/08/03 18:51:50;;;;;;;10.25;2.90;;;;;19.00;100767.00;;;;10545152;28;20194;-75
2021/08/03 18:56:52;;;;;;;3.67;3.17;;;;;18.80;100765.00;;;;10598141;27;20194;-75
2021/08/03 19:01:56;;;;;;;5.43;2.45;;;;;18.60;100768.00;;;;10568897;27;20191;-76
2021/08/03 19:07:15;;;;;;;6.63;2.78;;;;;18.20;100774.00;;;;10560522;28;20269;-76
2021/08/03 19:12:18;;;;;;;5.05;3.03;;;;;17.90;100766.00;;;;10527012;28;20195;-76
2021/08/03 19:17:29;;;;;;;3.20;2.90;;;;;17.70;100781.00;;;;10560897;28;20238;-76
2021/08/03 19:22:43;;;;;;;4.35;3.55;;;;;17.50;100786.00;;;;10527631;28;20567;-76
2021/08/03 19:27:47;;;;;;;6.63;3.15;;;;;17.20;100787.00;;;;10543501;28;20231;-76
2021/08/03 19:32:50;;;;;;;5.47;3.05;;;;;17.10;100796.00;;;;10543758;28;20265;-76
2021/08/03 19:37:53;;;;;;;4.80;3.28;;;;;16.90;100799.00;;;;10543226;28;20602;-76
2021/08/03 19:42:57;;;;;;;3.83;3.10;;;;;16.80;100812.00;;;;10559587;28;20203;-75
2021/08/03 19:48:10;;;;;;;4.20;3.80;;;;;16.90;100808.00;;;;10543017;28;20262;-75
2021/08/03 19:53:13;;;;;;;5.45;4.43;;;;;17.00;100811.00;;;;10535868;28;20205;-75
2021/08/03 19:58:18;;;;;;;5.70;4.25;;;;;17.10;100821.00;;;;10517866;28;20568;-76
2021/08/03 20:03:20;;;;;;;4.80;3.50;;;;;17.10;100815.00;;;;10483517;28;20208;-76
2021/08/03 20:08:22;;;;;;;4.97;4.45;;;;;17.10;100815.00;;;;10524836;28;20200;-76
2021/08/03 20:13:25;;;;;;;6.07;4.22;;;;;17.10;100822.00;;;;10542329;28;20543;-76
2021/08/03 20:18:28;;;;;;;7.47;4.60;;;;;17.00;100825.00;;;;10542626;28;20543;-76
2021/08/03 20:23:30;;;;;;;6.45;4.78;;;;;16.90;100821.00;;;;10542082;28;20226;-76
2021/08/03 20:28:46;;;;;;;6.72;4.95;;;;;16.80;100825.00;;;;10567384;28;20195;-76
2021/08/03 20:33:52;;;;;;;6.40;4.43;;;;;16.60;100825.00;;;;10550351;28;20663;-76
2021/08/03 20:39:00;;;;;;;5.60;4.57;;;;;16.50;100828.00;;;;10566965;28;20594;-76
2021/08/03 20:44:03;;;;;;;7.53;4.70;;;;;16.40;100831.00;;;;10516695;28;20576;-76
2021/08/03 20:49:05;;;;;;;7.47;4.47;;;;;16.30;100830.00;;;;10549361;28;20192;-76
2021/08/03 20:54:07;;;;;;;7.77;5.27;;;;;16.20;100831.00;;;;10562336;27;20200;-76
2021/08/03 20:59:09;;;;;;;6.63;4.60;;;;;16.10;100845.00;;;;10572545;27;20222;-76
2021/08/03 21:04:16;;;;;;;7.23;5.43;;;;;16.10;100835.00;;;;10540740;27;20659;-76
2021/08/03 21:09:18;;;;;;;8.83;5.00;;;;;16.00;100844.00;;;;10553951;27;20207;-75
2021/08/03 21:14:20;;;;;;;7.65;5.05;;;;;16.00;100834.00;;;;10515758;28;20235;-76
2021/08/03 21:19:41;;;;;;;6.77;5.60;;;;;16.00;100844.00;;;;10576214;27;20199;-76
2021/08/03 21:25:02;;;;;;;10.60;6.23;;;;;16.00;100845.00;;;;10584964;27;20231;-76
2021/08/03 21:30:23;;;;;;;7.43;5.33;;;;;16.10;100844.00;;;;10580362;27;20191;-76
2021/08/03 21:35:43;;;;;;;8.73;5.67;;;;;16.10;100844.00;;;;10602495;27;20212;-76
2021/08/03 21:41:04;;;;;;;6.80;6.10;;;;;16.00;100848.00;;;;10625184;27;20276;-76
2021/08/03 21:46:24;;;;;;;6.50;5.67;;;;;16.00;100838.00;;;;10592192;27;20211;-76
2021/08/03 21:51:45;;;;;;;9.50;5.97;;;;;16.00;100845.00;;;;10607523;27;20822;-76
2021/08/03 21:56:47;;;;;;;7.13;6.30;;;;;15.90;100847.00;;;;10576212;27;20284;-76
2021/08/03 22:01:49;;;;;;;6.70;6.00;;;;;15.90;100835.00;;;;10540809;27;20654;-75
2021/08/03 22:06:51;;;;;;;6.73;5.90;;;;;15.90;100836.00;;;;10549480;28;20200;-75
2021/08/03 22:11:53;;;;;;;7.20;5.83;;;;;15.80;100838.00;;;;10546563;28;20192;-75
2021/08/03 22:16:55;;;;;;;9.30;6.53;;;;;15.80;100839.00;;;;10529476;28;20184;-75
2021/08/03 22:21:56;;;;;;;9.37;6.97;;;;;15.70;100835.00;;;;10528301;28;20204;-75
2021/08/03 22:26:58;;;;;;;10.93;6.83;;;;;15.60;100831.00;;;;10554363;27;20269;-76
2021/08/03 22:32:02;;;;;;;7.53;6.77;;;;;15.60;100829.00;;;;10561736;28;20224;-76
2021/08/03 22:37:04;;;;;;;7.73;6.83;;;;;15.50;100821.00;;;;10577787;27;20187;-75
2021/08/03 22:42:06;;;;;;;8.60;6.63;;;;;15.40;100819.00;;;;10544737;28;20218;-76
2021/08/03 22:47:08;;;;;;;9.17;6.57;;;;;15.40;100822.00;;;;10561173;28;20675;-76
2021/08/03 22:52:12;;;;;;;7.73;6.50;;;;;15.40;100826.00;;;;10561502;28;20192;-76
2021/08/03 22:57:14;;;;;;;6.80;6.20;;;;;15.30;100824.00;;;;10528360;28;20184;-76
2021/08/03 23:02:16;;;;;;;10.27;7.73;;;;;15.30;100823.00;;;;10579677;28;20191;-76
2021/08/03 23:07:18;;;;;;;7.93;7.13;;;;;15.30;100815.00;;;;10530124;28;20234;-75
2021/08/03 23:12:20;;;;;;;9.93;6.60;;;;;15.20;100813.00;;;;10529277;28;20209;-76
2021/08/03 23:17:22;;;;;;;8.60;7.80;;;;;15.10;100802.00;;;;10522411;28;20245;-75
2021/08/03 23:22:24;;;;;;;9.37;8.40;;;;;14.90;100805.00;;;;10580232;27;20536;-77
2021/08/03 23:27:25;;;;;;;8.17;7.13;;;;;14.80;100803.00;;;;10557183;27;20674;-75
2021/08/03 23:32:27;;;;;;;9.67;7.57;;;;;14.80;100803.00;;;;10546722;28;20567;-75
2021/08/03 23:37:29;;;;;;;11.73;8.07;;;;;14.70;100799.00;;;;10527547;28;20176;-76
2021/08/03 23:42:32;;;;;;;8.23;7.43;;;;;14.70;100792.00;;;;10567589;27;20211;-75
2021/08/03 23:47:33;;;;;;;11.27;7.83;;;;;14.60;100788.00;;;;10605538;28;20207;-74
2021/08/03 23:52:35;;;;;;;8.67;7.73;;;;;14.40;100787.00;;;;10586380;28;20650;-75
2021/08/03 23:57:37;;;;;;;9.73;8.73;;;;;14.30;100787.00;;;;10529809;28;20196;-74
